createdAt,value
2023-02-22T00:02:14.066Z,7.76
2023-02-22T00:05:31.581Z,7.80
2023-02-22T00:08:43.954Z,7.89
2023-02-22T00:11:56.556Z,7.85
2023-02-22T00:15:10.022Z,7.70
2023-02-22T00:18:22.635Z,7.50
2023-02-22T00:21:35.020Z,7.42
2023-02-22T00:24:48.430Z,7.28
2023-02-22T00:28:00.779Z,7.28
2023-02-22T00:31:14.955Z,7.22
2023-02-22T00:34:28.034Z,7.04
2023-02-22T00:37:44.232Z,6.87
2023-02-22T00:40:56.684Z,6.97
2023-02-22T00:44:09.857Z,7.04
2023-02-22T00:47:22.223Z,7.03
2023-02-22T00:50:35.020Z,7.08
2023-02-22T00:53:47.741Z,7.08
2023-02-22T00:57:00.389Z,7.07
2023-02-22T01:00:21.077Z,6.98
2023-02-22T01:03:35.333Z,6.97
2023-02-22T01:06:47.877Z,6.85
2023-02-22T01:10:01.903Z,6.77
2023-02-22T01:13:14.300Z,6.85
2023-02-22T01:16:26.906Z,6.84
2023-02-22T01:19:42.512Z,6.74
2023-02-22T01:22:56.382Z,6.63
2023-02-22T01:26:08.706Z,6.60
2023-02-22T01:29:21.701Z,6.41
2023-02-22T01:32:37.178Z,6.37
2023-02-22T01:35:50.964Z,6.32
2023-02-22T01:39:03.556Z,6.37
2023-02-22T01:42:16.527Z,6.30
2023-02-22T01:45:34.671Z,6.26
2023-02-22T01:48:50.880Z,6.26
2023-02-22T01:52:04.654Z,6.23
2023-02-22T01:55:17.430Z,6.19
2023-02-22T01:58:31.986Z,6.18
2023-02-22T02:01:44.789Z,6.25
2023-02-22T02:04:57.465Z,6.26
2023-02-22T02:08:30.219Z,6.26
2023-02-22T02:11:42.941Z,6.24
2023-02-22T02:15:25.608Z,6.25
2023-02-22T02:18:38.002Z,6.29
2023-02-22T02:22:08.205Z,6.33
2023-02-22T02:25:44.873Z,6.39
2023-02-22T02:29:31.541Z,6.37
2023-02-22T02:32:45.635Z,6.45
2023-02-22T02:36:09.693Z,6.38
2023-02-22T02:39:31.160Z,6.33
2023-02-22T02:43:25.845Z,6.49
2023-02-22T02:46:56.220Z,6.35
2023-02-22T02:50:17.295Z,6.56
2023-02-22T02:53:37.533Z,6.65
2023-02-22T02:56:50.660Z,6.35
2023-02-22T03:00:05.112Z,6.56
2023-02-22T03:03:20.344Z,6.34
2023-02-22T03:06:49.556Z,6.15
2023-02-22T03:10:18.240Z,5.93
2023-02-22T03:14:03.074Z,5.84
2023-02-22T03:17:45.694Z,5.75
2023-02-22T03:21:01.809Z,5.64
2023-02-22T03:24:22.160Z,5.51
2023-02-22T03:27:43.652Z,5.51
2023-02-22T03:31:10.909Z,5.37
2023-02-22T03:34:26.376Z,5.20
2023-02-22T03:37:42.558Z,5.16
2023-02-22T03:40:55.328Z,5.26
2023-02-22T03:44:09.680Z,5.26
2023-02-22T03:47:23.467Z,5.32
2023-02-22T03:50:36.940Z,5.12
2023-02-22T03:53:49.552Z,5.43
2023-02-22T03:57:12.718Z,5.19
2023-02-22T04:00:27.099Z,5.12
2023-02-22T04:03:40.423Z,5.12
2023-02-22T04:06:53.003Z,4.88
2023-02-22T04:10:08.608Z,4.93
2023-02-22T04:13:22.446Z,5.01
2023-02-22T04:16:35.853Z,5.11
2023-02-22T04:19:51.479Z,4.69
2023-02-22T04:23:04.515Z,4.65
2023-02-22T04:26:17.258Z,4.50
2023-02-22T04:29:30.866Z,4.36
2023-02-22T04:32:43.306Z,4.33
2023-02-22T04:35:58.272Z,4.47
2023-02-22T04:39:12.145Z,4.54
2023-02-22T04:42:24.837Z,4.59
2023-02-22T04:45:38.098Z,4.52
2023-02-22T04:48:51.302Z,4.32
2023-02-22T04:52:05.895Z,4.30
2023-02-22T04:55:18.808Z,4.16
2023-02-22T04:58:31.854Z,4.15
2023-02-22T05:01:44.632Z,4.24
2023-02-22T05:04:57.092Z,3.99
2023-02-22T05:08:09.758Z,4.02
2023-02-22T05:11:22.527Z,4.12
2023-02-22T05:14:35.551Z,4.16
2023-02-22T05:17:47.935Z,4.17
2023-02-22T05:21:00.628Z,4.09
2023-02-22T05:24:12.926Z,3.97
2023-02-22T05:27:25.801Z,3.91
2023-02-22T05:30:39.829Z,3.86
2023-02-22T05:33:52.812Z,3.81
2023-02-22T05:37:05.179Z,3.73
2023-02-22T05:40:22.355Z,3.87
2023-02-22T05:43:34.728Z,3.87
2023-02-22T05:46:47.434Z,3.88
2023-02-22T05:49:59.912Z,3.91
2023-02-22T05:53:12.540Z,3.82
2023-02-22T05:56:26.056Z,3.70
2023-02-22T05:59:38.714Z,3.51
2023-02-22T06:03:09.864Z,3.51
2023-02-22T06:06:23.911Z,3.69
2023-02-22T06:09:36.229Z,3.71
2023-02-22T06:12:49.208Z,3.76
2023-02-22T06:16:01.839Z,3.90
2023-02-22T06:19:14.487Z,3.88
2023-02-22T06:22:26.884Z,4.05
2023-02-22T06:25:39.534Z,4.08
2023-02-22T06:28:51.878Z,4.13
2023-02-22T06:32:04.732Z,4.36
2023-02-22T06:35:17.275Z,4.53
2023-02-22T06:38:29.924Z,4.56
2023-02-22T06:41:46.064Z,4.76
2023-02-22T06:44:58.686Z,5.00
2023-02-22T06:48:11.015Z,5.15
2023-02-22T06:51:23.650Z,5.25
2023-02-22T06:54:36.868Z,5.41
2023-02-22T06:57:49.537Z,5.69
2023-02-22T07:01:03.870Z,5.82
2023-02-22T07:04:16.681Z,6.03
2023-02-22T07:07:29.862Z,6.17
2023-02-22T07:10:42.555Z,6.50
2023-02-22T07:13:55.566Z,6.61
2023-02-22T07:17:11.685Z,6.74
2023-02-22T07:20:25.020Z,7.02
2023-02-22T07:23:38.198Z,7.23
2023-02-22T07:26:50.534Z,7.35
2023-02-22T07:30:03.650Z,7.37
2023-02-22T07:33:16.058Z,7.43
2023-02-22T07:36:28.752Z,7.52
2023-02-22T07:39:43.795Z,7.83
2023-02-22T07:43:01.091Z,7.96
2023-02-22T07:46:13.435Z,8.22
2023-02-22T07:49:26.056Z,8.31
2023-02-22T07:52:38.459Z,8.52
2023-02-22T07:55:51.958Z,8.77
2023-02-22T07:59:04.346Z,9.14
2023-02-22T08:02:17.152Z,9.24
2023-02-22T08:05:30.436Z,9.43
2023-02-22T08:08:42.963Z,9.86
2023-02-22T08:11:55.710Z,10.04
2023-02-22T08:15:09.188Z,10.27
2023-02-22T08:18:23.750Z,10.63
2023-02-22T08:21:36.115Z,10.83
2023-02-22T08:24:48.759Z,10.89
2023-02-22T08:28:12.037Z,11.16
2023-02-22T08:31:24.716Z,11.01
2023-02-22T08:36:34.680Z,11.47
2023-02-22T08:39:47.542Z,11.56
2023-02-22T08:43:00.016Z,11.84
2023-02-22T08:46:12.729Z,11.59
2023-02-22T08:49:25.111Z,11.76
2023-02-22T08:52:37.707Z,11.83
2023-02-22T08:55:50.035Z,11.99
2023-02-22T08:59:02.679Z,11.94
2023-02-22T09:02:16.175Z,12.07
2023-02-22T09:05:31.352Z,11.93
2023-02-22T09:08:44.167Z,11.54
2023-02-22T09:11:56.840Z,11.75
2023-02-22T09:15:09.673Z,11.60
2023-02-22T09:18:22.457Z,11.70
2023-02-22T09:21:34.906Z,11.61
2023-02-22T09:24:47.577Z,11.69
2023-02-22T09:28:00.135Z,11.63
2023-02-22T09:31:13.924Z,11.58
2023-02-22T09:34:29.771Z,11.55
2023-02-22T09:37:45.070Z,11.73
2023-02-22T09:41:23.893Z,11.78
2023-02-22T09:44:36.397Z,12.00
2023-02-22T09:48:08.190Z,12.24
2023-02-22T09:51:53.118Z,12.20
2023-02-22T09:55:12.841Z,12.04
2023-02-22T09:58:33.429Z,12.74
2023-02-22T10:01:47.630Z,12.62
2023-02-22T10:05:08.423Z,12.89
2023-02-22T10:08:21.807Z,13.00
2023-02-22T10:11:57.053Z,12.81
2023-02-22T10:15:24.528Z,13.07
2023-02-22T10:18:50.277Z,13.55
2023-02-22T10:22:21.717Z,13.66
2023-02-22T10:25:36.260Z,13.43
2023-02-22T10:29:22.247Z,13.19
2023-02-22T10:32:43.477Z,13.35
2023-02-22T10:35:55.843Z,13.39
2023-02-22T10:39:27.237Z,13.47
2023-02-22T10:42:39.661Z,13.28
2023-02-22T10:45:56.017Z,13.12
2023-02-22T10:49:08.528Z,13.31
2023-02-22T10:52:28.090Z,13.26
2023-02-22T10:56:06.161Z,13.82
2023-02-22T10:59:35.237Z,14.06
2023-02-22T11:03:01.066Z,14.20
2023-02-22T11:06:22.841Z,14.08
2023-02-22T11:09:52.601Z,13.52
2023-02-22T11:13:27.249Z,13.72
2023-02-22T11:16:43.853Z,13.59
2023-02-22T11:19:56.578Z,13.11
2023-02-22T11:23:08.915Z,13.39
2023-02-22T11:26:21.584Z,13.40
2023-02-22T11:29:37.495Z,13.71
2023-02-22T11:32:59.961Z,13.96
2023-02-22T11:36:16.538Z,13.76
2023-02-22T11:39:34.322Z,13.91
2023-02-22T11:42:46.883Z,14.24
2023-02-22T11:46:08.302Z,14.24
2023-02-22T11:49:25.510Z,14.25
2023-02-22T11:52:42.637Z,14.42
2023-02-22T11:56:02.016Z,14.41
2023-02-22T11:59:22.909Z,14.28
2023-02-22T12:03:02.010Z,14.11
2023-02-22T12:06:26.668Z,14.30
2023-02-22T12:09:56.388Z,13.89
2023-02-22T12:13:30.455Z,13.38
2023-02-22T12:17:15.065Z,13.69
2023-02-22T12:20:30.996Z,13.69
2023-02-22T12:23:54.797Z,13.86
2023-02-22T12:27:10.871Z,14.04
2023-02-22T12:30:28.927Z,13.95
2023-02-22T12:34:08.116Z,14.13
2023-02-22T12:37:27.917Z,13.94
2023-02-22T12:41:01.559Z,13.73
2023-02-22T12:44:22.949Z,14.28
2023-02-22T12:47:42.777Z,14.16
2023-02-22T12:51:02.375Z,14.21
2023-02-22T12:55:00.676Z,13.90
2023-02-22T12:58:19.173Z,14.25
2023-02-22T13:01:40.887Z,13.66
2023-02-22T13:04:53.280Z,14.01
2023-02-22T13:08:37.246Z,13.93
2023-02-22T13:12:11.438Z,13.80
2023-02-22T13:15:34.216Z,13.98
2023-02-22T13:18:55.573Z,13.73
2023-02-22T13:22:26.755Z,13.85
2023-02-22T13:25:44.198Z,14.14
2023-02-22T13:29:20.722Z,14.14
2023-02-22T13:32:56.068Z,14.59
2023-02-22T13:36:31.226Z,14.41
2023-02-22T13:40:06.652Z,14.55
2023-02-22T13:43:19.094Z,14.47
2023-02-22T13:46:43.731Z,14.02
2023-02-22T13:50:21.164Z,14.36
2023-02-22T13:53:43.800Z,14.10
2023-02-22T13:56:56.597Z,14.05
2023-02-22T14:00:41.429Z,13.91
2023-02-22T14:03:54.245Z,13.71
2023-02-22T14:07:18.846Z,13.97
2023-02-22T14:10:49.373Z,14.06
2023-02-22T14:14:01.584Z,13.93
2023-02-22T14:17:32.119Z,13.88
2023-02-22T14:20:44.475Z,13.63
2023-02-22T14:23:57.330Z,13.99
2023-02-22T14:27:09.872Z,14.11
2023-02-22T14:30:26.142Z,14.02
2023-02-22T14:33:57.251Z,14.03
2023-02-22T14:37:17.404Z,13.24
2023-02-22T14:40:31.071Z,13.30
2023-02-22T14:43:43.702Z,13.37
2023-02-22T14:46:57.084Z,13.55
2023-02-22T14:50:44.621Z,13.69
2023-02-22T14:54:18.641Z,13.22
2023-02-22T14:57:42.269Z,13.22
2023-02-22T15:00:56.885Z,13.24
2023-02-22T15:04:28.717Z,13.28
2023-02-22T15:07:51.690Z,13.34
2023-02-22T15:11:04.869Z,13.00
2023-02-22T15:14:26.691Z,12.81
2023-02-22T15:17:39.637Z,12.77
2023-02-22T15:20:56.222Z,12.61
2023-02-22T15:24:09.085Z,12.56
2023-02-22T15:27:21.406Z,12.54
2023-02-22T15:30:34.470Z,12.50
2023-02-22T15:33:47.184Z,12.42
2023-02-22T15:37:19.296Z,12.42
2023-02-22T15:40:34.291Z,12.39
2023-02-22T15:44:21.346Z,12.40
2023-02-22T15:47:35.396Z,12.31
2023-02-22T15:51:06.823Z,12.35
2023-02-22T15:54:26.980Z,12.12
2023-02-22T15:57:40.610Z,12.07
2023-02-22T16:01:18.809Z,12.11
2023-02-22T16:04:31.800Z,12.08
2023-02-22T16:07:46.965Z,12.07
2023-02-22T16:11:03.612Z,11.98
2023-02-22T16:14:30.389Z,11.98
2023-02-22T16:17:55.999Z,11.95
2023-02-22T16:21:15.407Z,11.89
2023-02-22T16:24:29.798Z,11.74
2023-02-22T16:28:06.271Z,11.74
2023-02-22T16:31:25.273Z,11.75
2023-02-22T16:34:37.827Z,11.66
2023-02-22T16:37:51.777Z,11.70
2023-02-22T16:41:05.208Z,11.61
2023-02-22T16:44:17.871Z,11.52
2023-02-22T16:47:30.247Z,11.41
2023-02-22T16:50:42.873Z,11.30
2023-02-22T16:53:55.877Z,11.27
2023-02-22T16:57:21.093Z,11.26
2023-02-22T17:00:34.600Z,11.19
2023-02-22T17:03:47.920Z,11.09
2023-02-22T17:07:00.375Z,10.92
2023-02-22T17:10:17.421Z,10.84
2023-02-22T17:13:29.873Z,10.80
2023-02-22T17:16:42.516Z,10.84
2023-02-22T17:19:55.094Z,10.79
2023-02-22T17:23:08.932Z,10.69
2023-02-22T17:26:21.327Z,10.66
2023-02-22T17:29:33.948Z,10.55
2023-02-22T17:32:46.269Z,10.48
2023-02-22T17:35:59.559Z,10.44
2023-02-22T17:39:11.960Z,10.30
2023-02-22T17:42:24.534Z,10.35
2023-02-22T17:45:41.429Z,10.22
2023-02-22T17:48:56.655Z,10.12
2023-02-22T17:52:09.625Z,10.09
2023-02-22T17:55:22.460Z,9.85
2023-02-22T17:58:34.839Z,9.76
2023-02-22T18:01:48.260Z,9.61
2023-02-22T18:05:01.409Z,9.52
2023-02-22T18:08:14.455Z,9.40
2023-02-22T18:11:27.988Z,9.19
2023-02-22T18:14:40.392Z,9.02
2023-02-22T18:17:53.167Z,8.86
2023-02-22T18:21:06.429Z,8.86
2023-02-22T18:24:19.071Z,9.01
2023-02-22T18:27:31.423Z,8.93
2023-02-22T18:30:44.270Z,8.71
2023-02-22T18:33:57.578Z,8.59
2023-02-22T18:37:10.260Z,8.54
2023-02-22T18:40:23.853Z,8.68
2023-02-22T18:43:36.548Z,8.78
2023-02-22T18:46:48.917Z,8.72
2023-02-22T18:50:01.531Z,8.52
2023-02-22T18:53:13.833Z,8.52
2023-02-22T18:56:30.155Z,8.48
2023-02-22T18:59:42.847Z,8.44
2023-02-22T19:02:57.711Z,8.53
2023-02-22T19:06:10.238Z,8.53
2023-02-22T19:09:23.094Z,8.30
2023-02-22T19:12:35.420Z,8.40
2023-02-22T19:15:49.031Z,8.49
2023-02-22T19:19:01.462Z,8.53
2023-02-22T19:22:17.110Z,8.33
2023-02-22T19:25:29.912Z,8.37
2023-02-22T19:28:42.529Z,8.27
2023-02-22T19:31:54.926Z,8.43
2023-02-22T19:35:08.440Z,8.31
2023-02-22T19:38:21.559Z,8.30
2023-02-22T19:41:34.247Z,8.08
2023-02-22T19:44:48.347Z,8.32
2023-02-22T19:48:00.971Z,8.38
2023-02-22T19:51:14.396Z,8.40
2023-02-22T19:54:27.519Z,8.44
2023-02-22T19:57:46.382Z,8.24
2023-02-22T20:00:59.066Z,8.31
2023-02-22T20:04:14.024Z,8.44
2023-02-22T20:07:26.414Z,8.38
2023-02-22T20:10:39.403Z,8.44
2023-02-22T20:13:51.729Z,8.49
2023-02-22T20:17:05.061Z,8.42
2023-02-22T20:20:18.252Z,8.53
2023-02-22T20:23:30.824Z,8.52
2023-02-22T20:26:43.282Z,8.63
2023-02-22T20:29:55.931Z,8.81
2023-02-22T20:33:10.313Z,8.80
2023-02-22T20:36:23.068Z,8.57
2023-02-22T20:39:35.419Z,8.50
2023-02-22T20:42:48.056Z,8.52
2023-02-22T20:46:04.002Z,8.72
2023-02-22T20:49:18.772Z,8.67
2023-02-22T20:52:31.196Z,8.64
2023-02-22T20:55:52.967Z,8.56
2023-02-22T20:59:05.381Z,8.60
2023-02-22T21:02:17.977Z,8.48
2023-02-22T21:05:32.018Z,8.61
2023-02-22T21:08:50.652Z,8.64
2023-02-22T21:12:02.924Z,8.63
2023-02-22T21:15:15.509Z,8.54
2023-02-22T21:18:28.031Z,8.52
2023-02-22T21:21:40.588Z,8.43
2023-02-22T21:24:53.451Z,8.43
2023-02-22T21:28:06.071Z,8.59
2023-02-22T21:31:23.071Z,8.75
2023-02-22T21:34:36.352Z,8.69
2023-02-22T21:37:48.752Z,8.72
2023-02-22T21:41:03.272Z,8.62
2023-02-22T21:44:15.715Z,8.72
2023-02-22T21:47:31.196Z,8.71
2023-02-22T21:50:43.527Z,8.41
2023-02-22T21:53:56.309Z,8.71
2023-02-22T21:57:09.039Z,8.92
2023-02-22T22:00:29.350Z,8.78
2023-02-22T22:03:41.976Z,8.70
2023-02-22T22:06:54.715Z,8.87
2023-02-22T22:10:08.994Z,8.70
2023-02-22T22:13:25.549Z,8.88
2023-02-22T22:16:38.179Z,8.77
2023-02-22T22:19:51.745Z,8.75
2023-02-22T22:23:07.760Z,8.58
2023-02-22T22:26:20.242Z,8.56
2023-02-22T22:29:34.549Z,8.44
2023-02-22T22:32:47.072Z,8.67
2023-02-22T22:35:59.702Z,8.65
2023-02-22T22:39:14.871Z,8.66
2023-02-22T22:42:27.527Z,8.77
2023-02-22T22:45:41.009Z,8.60
2023-02-22T22:48:53.634Z,8.42
2023-02-22T22:52:09.221Z,8.36
2023-02-22T22:55:24.287Z,8.51
2023-02-22T22:58:36.666Z,8.42
2023-02-22T23:01:50.215Z,8.47
2023-02-22T23:05:02.548Z,8.49
2023-02-22T23:08:15.671Z,8.32
2023-02-22T23:11:29.355Z,8.37
2023-02-22T23:14:45.472Z,8.02
2023-02-22T23:17:59.292Z,7.81
2023-02-22T23:21:11.943Z,7.82
2023-02-22T23:24:27.285Z,7.92
2023-02-22T23:27:39.962Z,7.93
2023-02-22T23:30:52.339Z,8.04
2023-02-22T23:34:11.258Z,7.96
2023-02-22T23:37:23.979Z,7.98
2023-02-22T23:40:36.706Z,7.84
2023-02-22T23:43:49.324Z,7.82
2023-02-22T23:47:02.609Z,7.69
2023-02-22T23:50:15.055Z,7.60
2023-02-22T23:53:30.061Z,7.61
2023-02-22T23:56:53.669Z,7.45
